sensor_id;sensor_type;location;lat;lon;timestamp;P1;durP1;ratioP1;P2;durP2;ratioP2
20653;SDS011;21083;50.898;4.902;2023-05-07T00:00:55;13.15;;;5.75;;
20653;SDS011;21083;50.898;4.902;2023-05-07T00:03:24;11.55;;;6.32;;
20653;SDS011;21083;50.898;4.902;2023-05-07T00:05:52;13.93;;;6.32;;
20653;SDS011;21083;50.898;4.902;2023-05-07T00:08:19;11.90;;;5.70;;
20653;SDS011;21083;50.898;4.902;2023-05-07T00:10:46;13.93;;;5.63;;
20653;SDS011;21083;50.898;4.902;2023-05-07T00:13:13;12.15;;;5.88;;
20653;SDS011;21083;50.898;4.902;2023-05-07T00:15:41;11.35;;;5.75;;
20653;SDS011;21083;50.898;4.902;2023-05-07T00:18:09;13.02;;;6.15;;
20653;SDS011;21083;50.898;4.902;2023-05-07T00:20:36;13.02;;;5.88;;
20653;SDS011;21083;50.898;4.902;2023-05-07T00:23:03;12.55;;;6.05;;
20653;SDS011;21083;50.898;4.902;2023-05-07T00:25:30;13.70;;;6.88;;
20653;SDS011;21083;50.898;4.902;2023-05-07T00:27:57;12.93;;;6.50;;
20653;SDS011;21083;50.898;4.902;2023-05-07T00:30:28;11.65;;;5.90;;
20653;SDS011;21083;50.898;4.902;2023-05-07T00:32:55;11.02;;;5.78;;
20653;SDS011;21083;50.898;4.902;2023-05-07T00:35:24;12.13;;;6.63;;
20653;SDS011;21083;50.898;4.902;2023-05-07T00:37:51;13.23;;;6.28;;
20653;SDS011;21083;50.898;4.902;2023-05-07T00:40:18;11.75;;;5.97;;
20653;SDS011;21083;50.898;4.902;2023-05-07T00:42:45;12.90;;;7.00;;
20653;SDS011;21083;50.898;4.902;2023-05-07T00:45:14;12.63;;;6.18;;
20653;SDS011;21083;50.898;4.902;2023-05-07T00:47:42;13.10;;;6.85;;
20653;SDS011;21083;50.898;4.902;2023-05-07T00:50:09;13.65;;;5.85;;
20653;SDS011;21083;50.898;4.902;2023-05-07T00:52:38;11.45;;;5.90;;
20653;SDS011;21083;50.898;4.902;2023-05-07T00:55:07;12.57;;;6.53;;
20653;SDS011;21083;50.898;4.902;2023-05-07T00:57:35;13.27;;;6.45;;
20653;SDS011;21083;50.898;4.902;2023-05-07T01:00:03;11.98;;;6.82;;
20653;SDS011;21083;50.898;4.902;2023-05-07T01:02:32;16.73;;;7.15;;
20653;SDS011;21083;50.898;4.902;2023-05-07T01:04:59;12.55;;;7.32;;
20653;SDS011;21083;50.898;4.902;2023-05-07T01:07:28;14.20;;;7.43;;
20653;SDS011;21083;50.898;4.902;2023-05-07T01:09:57;16.02;;;8.10;;
20653;SDS011;21083;50.898;4.902;2023-05-07T01:12:24;11.95;;;6.97;;
20653;SDS011;21083;50.898;4.902;2023-05-07T01:14:52;15.00;;;8.38;;
20653;SDS011;21083;50.898;4.902;2023-05-07T01:17:20;16.83;;;8.70;;
20653;SDS011;21083;50.898;4.902;2023-05-07T01:19:47;14.18;;;7.80;;
20653;SDS011;21083;50.898;4.902;2023-05-07T01:22:15;11.70;;;7.30;;
20653;SDS011;21083;50.898;4.902;2023-05-07T01:24:48;14.93;;;8.07;;
20653;SDS011;21083;50.898;4.902;2023-05-07T01:27:15;14.07;;;7.88;;
20653;SDS011;21083;50.898;4.902;2023-05-07T01:29:42;14.75;;;8.35;;
20653;SDS011;21083;50.898;4.902;2023-05-07T01:32:09;14.73;;;8.38;;
20653;SDS011;21083;50.898;4.902;2023-05-07T01:34:37;14.15;;;7.75;;
20653;SDS011;21083;50.898;4.902;2023-05-07T01:37:06;13.90;;;8.55;;
20653;SDS011;21083;50.898;4.902;2023-05-07T01:39:33;16.02;;;8.68;;
20653;SDS011;21083;50.898;4.902;2023-05-07T01:42:04;17.70;;;9.00;;
20653;SDS011;21083;50.898;4.902;2023-05-07T01:44:32;15.35;;;9.35;;
20653;SDS011;21083;50.898;4.902;2023-05-07T01:46:59;15.38;;;8.93;;
20653;SDS011;21083;50.898;4.902;2023-05-07T01:49:28;17.48;;;9.05;;
20653;SDS011;21083;50.898;4.902;2023-05-07T01:51:55;15.65;;;9.60;;
20653;SDS011;21083;50.898;4.902;2023-05-07T01:54:25;15.90;;;9.18;;
20653;SDS011;21083;50.898;4.902;2023-05-07T01:56:53;21.17;;;8.85;;
20653;SDS011;21083;50.898;4.902;2023-05-07T01:59:23;14.82;;;8.80;;
20653;SDS011;21083;50.898;4.902;2023-05-07T02:01:50;14.50;;;8.90;;
20653;SDS011;21083;50.898;4.902;2023-05-07T02:04:17;14.18;;;8.05;;
20653;SDS011;21083;50.898;4.902;2023-05-07T02:06:44;16.10;;;9.13;;
20653;SDS011;21083;50.898;4.902;2023-05-07T02:09:11;16.67;;;9.07;;
20653;SDS011;21083;50.898;4.902;2023-05-07T02:11:38;15.85;;;8.75;;
20653;SDS011;21083;50.898;4.902;2023-05-07T02:14:05;13.52;;;8.70;;
20653;SDS011;21083;50.898;4.902;2023-05-07T02:16:33;17.20;;;9.55;;
20653;SDS011;21083;50.898;4.902;2023-05-07T02:19:00;13.70;;;8.68;;
20653;SDS011;21083;50.898;4.902;2023-05-07T02:21:27;15.35;;;8.73;;
20653;SDS011;21083;50.898;4.902;2023-05-07T02:23:54;16.95;;;9.00;;
20653;SDS011;21083;50.898;4.902;2023-05-07T02:26:21;16.23;;;8.07;;
20653;SDS011;21083;50.898;4.902;2023-05-07T02:28:48;17.58;;;9.48;;
20653;SDS011;21083;50.898;4.902;2023-05-07T02:31:15;15.27;;;8.52;;
20653;SDS011;21083;50.898;4.902;2023-05-07T02:33:44;14.43;;;9.07;;
20653;SDS011;21083;50.898;4.902;2023-05-07T02:36:11;16.75;;;9.75;;
20653;SDS011;21083;50.898;4.902;2023-05-07T02:38:38;12.90;;;8.50;;
20653;SDS011;21083;50.898;4.902;2023-05-07T02:41:05;14.77;;;9.48;;
20653;SDS011;21083;50.898;4.902;2023-05-07T02:43:32;16.67;;;9.07;;
20653;SDS011;21083;50.898;4.902;2023-05-07T02:46:00;17.15;;;9.55;;
20653;SDS011;21083;50.898;4.902;2023-05-07T02:48:28;14.68;;;8.98;;
20653;SDS011;21083;50.898;4.902;2023-05-07T02:50:56;15.65;;;8.75;;
20653;SDS011;21083;50.898;4.902;2023-05-07T02:53:23;16.90;;;8.73;;
20653;SDS011;21083;50.898;4.902;2023-05-07T02:55:51;17.17;;;9.55;;
20653;SDS011;21083;50.898;4.902;2023-05-07T02:58:19;14.57;;;8.73;;
20653;SDS011;21083;50.898;4.902;2023-05-07T03:00:46;14.10;;;8.27;;
20653;SDS011;21083;50.898;4.902;2023-05-07T03:03:13;15.00;;;8.02;;
20653;SDS011;21083;50.898;4.902;2023-05-07T03:05:40;17.70;;;8.90;;
20653;SDS011;21083;50.898;4.902;2023-05-07T03:08:09;16.95;;;9.45;;
20653;SDS011;21083;50.898;4.902;2023-05-07T03:10:36;16.02;;;8.40;;
20653;SDS011;21083;50.898;4.902;2023-05-07T03:13:03;19.85;;;9.15;;
20653;SDS011;21083;50.898;4.902;2023-05-07T03:15:31;16.63;;;8.82;;
20653;SDS011;21083;50.898;4.902;2023-05-07T03:17:58;14.00;;;8.57;;
20653;SDS011;21083;50.898;4.902;2023-05-07T03:20:25;16.65;;;8.55;;
20653;SDS011;21083;50.898;4.902;2023-05-07T03:22:52;13.02;;;8.43;;
20653;SDS011;21083;50.898;4.902;2023-05-07T03:25:20;16.65;;;9.40;;
20653;SDS011;21083;50.898;4.902;2023-05-07T03:27:47;13.82;;;8.40;;
20653;SDS011;21083;50.898;4.902;2023-05-07T03:30:14;15.68;;;9.02;;
20653;SDS011;21083;50.898;4.902;2023-05-07T03:32:42;12.98;;;8.35;;
20653;SDS011;21083;50.898;4.902;2023-05-07T03:35:09;12.88;;;8.23;;
20653;SDS011;21083;50.898;4.902;2023-05-07T03:37:37;14.15;;;8.40;;
20653;SDS011;21083;50.898;4.902;2023-05-07T03:40:04;15.68;;;7.95;;
20653;SDS011;21083;50.898;4.902;2023-05-07T03:42:34;15.77;;;7.97;;
20653;SDS011;21083;50.898;4.902;2023-05-07T03:45:01;16.85;;;8.88;;
20653;SDS011;21083;50.898;4.902;2023-05-07T03:47:28;14.48;;;8.88;;
20653;SDS011;21083;50.898;4.902;2023-05-07T03:49:55;13.30;;;8.35;;
20653;SDS011;21083;50.898;4.902;2023-05-07T03:52:22;13.05;;;8.18;;
20653;SDS011;21083;50.898;4.902;2023-05-07T03:54:52;19.65;;;9.32;;
20653;SDS011;21083;50.898;4.902;2023-05-07T03:57:19;16.45;;;8.65;;
20653;SDS011;21083;50.898;4.902;2023-05-07T03:59:48;14.05;;;8.73;;
20653;SDS011;21083;50.898;4.902;2023-05-07T04:02:15;14.75;;;9.18;;
20653;SDS011;21083;50.898;4.902;2023-05-07T04:04:41;17.02;;;9.60;;
20653;SDS011;21083;50.898;4.902;2023-05-07T04:07:08;16.48;;;9.10;;
20653;SDS011;21083;50.898;4.902;2023-05-07T04:09:36;15.38;;;8.23;;
20653;SDS011;21083;50.898;4.902;2023-05-07T04:12:03;16.98;;;9.48;;
20653;SDS011;21083;50.898;4.902;2023-05-07T04:14:30;15.77;;;9.98;;
20653;SDS011;21083;50.898;4.902;2023-05-07T04:16:59;14.38;;;8.63;;
20653;SDS011;21083;50.898;4.902;2023-05-07T04:19:27;14.23;;;8.38;;
20653;SDS011;21083;50.898;4.902;2023-05-07T04:21:54;12.55;;;7.05;;
20653;SDS011;21083;50.898;4.902;2023-05-07T04:24:21;14.10;;;8.75;;
20653;SDS011;21083;50.898;4.902;2023-05-07T04:26:48;15.85;;;8.88;;
20653;SDS011;21083;50.898;4.902;2023-05-07T04:29:16;14.50;;;7.93;;
20653;SDS011;21083;50.898;4.902;2023-05-07T04:31:43;14.60;;;7.93;;
20653;SDS011;21083;50.898;4.902;2023-05-07T04:34:12;13.80;;;8.68;;
20653;SDS011;21083;50.898;4.902;2023-05-07T04:36:39;16.17;;;8.30;;
20653;SDS011;21083;50.898;4.902;2023-05-07T04:39:06;14.75;;;7.75;;
20653;SDS011;21083;50.898;4.902;2023-05-07T04:41:34;18.00;;;9.40;;
20653;SDS011;21083;50.898;4.902;2023-05-07T04:44:02;14.57;;;8.05;;
20653;SDS011;21083;50.898;4.902;2023-05-07T04:46:31;15.77;;;8.45;;
20653;SDS011;21083;50.898;4.902;2023-05-07T04:48:58;15.13;;;7.82;;
20653;SDS011;21083;50.898;4.902;2023-05-07T04:51:27;14.70;;;8.85;;
20653;SDS011;21083;50.898;4.902;2023-05-07T04:53:54;13.98;;;8.13;;
20653;SDS011;21083;50.898;4.902;2023-05-07T04:56:21;14.25;;;7.53;;
20653;SDS011;21083;50.898;4.902;2023-05-07T04:58:48;16.30;;;9.35;;
20653;SDS011;21083;50.898;4.902;2023-05-07T05:01:15;14.13;;;8.45;;
20653;SDS011;21083;50.898;4.902;2023-05-07T05:03:42;16.52;;;9.65;;
20653;SDS011;21083;50.898;4.902;2023-05-07T05:06:09;15.30;;;9.10;;
20653;SDS011;21083;50.898;4.902;2023-05-07T05:08:37;12.20;;;7.68;;
20653;SDS011;21083;50.898;4.902;2023-05-07T05:11:05;17.58;;;9.52;;
20653;SDS011;21083;50.898;4.902;2023-05-07T05:13:32;14.93;;;8.82;;
20653;SDS011;21083;50.898;4.902;2023-05-07T05:15:59;17.05;;;9.10;;
20653;SDS011;21083;50.898;4.902;2023-05-07T05:18:26;16.65;;;9.95;;
20653;SDS011;21083;50.898;4.902;2023-05-07T05:20:57;16.38;;;9.57;;
20653;SDS011;21083;50.898;4.902;2023-05-07T05:26:51;17.08;;;9.23;;
20653;SDS011;21083;50.898;4.902;2023-05-07T05:29:32;14.35;;;9.20;;
20653;SDS011;21083;50.898;4.902;2023-05-07T05:31:59;18.52;;;10.38;;
20653;SDS011;21083;50.898;4.902;2023-05-07T05:34:50;15.35;;;9.98;;
20653;SDS011;21083;50.898;4.902;2023-05-07T05:37:27;17.65;;;9.80;;
20653;SDS011;21083;50.898;4.902;2023-05-07T05:40:00;22.05;;;11.00;;
20653;SDS011;21083;50.898;4.902;2023-05-07T05:42:33;16.08;;;10.63;;
20653;SDS011;21083;50.898;4.902;2023-05-07T05:45:04;20.15;;;10.70;;
20653;SDS011;21083;50.898;4.902;2023-05-07T05:47:49;19.80;;;10.60;;
20653;SDS011;21083;50.898;4.902;2023-05-07T05:50:18;20.85;;;10.32;;
20653;SDS011;21083;50.898;4.902;2023-05-07T05:52:57;16.63;;;10.65;;
20653;SDS011;21083;50.898;4.902;2023-05-07T05:55:37;20.30;;;11.10;;
20653;SDS011;21083;50.898;4.902;2023-05-07T05:58:08;17.90;;;10.38;;
20653;SDS011;21083;50.898;4.902;2023-05-07T06:00:35;20.67;;;11.27;;
20653;SDS011;21083;50.898;4.902;2023-05-07T06:03:02;16.80;;;10.40;;
20653;SDS011;21083;50.898;4.902;2023-05-07T06:05:29;17.48;;;9.98;;
20653;SDS011;21083;50.898;4.902;2023-05-07T06:07:56;19.80;;;9.80;;
20653;SDS011;21083;50.898;4.902;2023-05-07T06:10:23;17.42;;;9.13;;
20653;SDS011;21083;50.898;4.902;2023-05-07T06:12:53;18.20;;;10.82;;
20653;SDS011;21083;50.898;4.902;2023-05-07T06:15:20;15.10;;;9.13;;
20653;SDS011;21083;50.898;4.902;2023-05-07T06:17:47;18.00;;;10.50;;
20653;SDS011;21083;50.898;4.902;2023-05-07T06:20:15;18.30;;;10.85;;
20653;SDS011;21083;50.898;4.902;2023-05-07T06:22:42;18.70;;;10.30;;
20653;SDS011;21083;50.898;4.902;2023-05-07T06:25:09;16.00;;;10.00;;
20653;SDS011;21083;50.898;4.902;2023-05-07T06:27:36;15.73;;;9.65;;
20653;SDS011;21083;50.898;4.902;2023-05-07T06:30:06;14.70;;;9.48;;
20653;SDS011;21083;50.898;4.902;2023-05-07T06:32:34;22.33;;;9.75;;
20653;SDS011;21083;50.898;4.902;2023-05-07T06:35:01;16.33;;;8.98;;
20653;SDS011;21083;50.898;4.902;2023-05-07T06:37:28;17.73;;;8.40;;
20653;SDS011;21083;50.898;4.902;2023-05-07T06:39:55;15.23;;;9.00;;
20653;SDS011;21083;50.898;4.902;2023-05-07T06:42:22;17.98;;;8.73;;
20653;SDS011;21083;50.898;4.902;2023-05-07T06:44:49;19.67;;;8.50;;
20653;SDS011;21083;50.898;4.902;2023-05-07T06:47:17;17.55;;;7.70;;
20653;SDS011;21083;50.898;4.902;2023-05-07T06:49:44;16.70;;;7.60;;
20653;SDS011;21083;50.898;4.902;2023-05-07T06:52:11;14.85;;;8.18;;
20653;SDS011;21083;50.898;4.902;2023-05-07T06:54:38;16.08;;;7.60;;
20653;SDS011;21083;50.898;4.902;2023-05-07T06:57:05;16.50;;;7.72;;
20653;SDS011;21083;50.898;4.902;2023-05-07T06:59:32;16.75;;;8.07;;
20653;SDS011;21083;50.898;4.902;2023-05-07T07:01:59;14.43;;;7.57;;
20653;SDS011;21083;50.898;4.902;2023-05-07T07:04:27;15.65;;;7.22;;
20653;SDS011;21083;50.898;4.902;2023-05-07T07:06:55;15.05;;;7.63;;
20653;SDS011;21083;50.898;4.902;2023-05-07T07:09:22;18.08;;;8.18;;
20653;SDS011;21083;50.898;4.902;2023-05-07T07:11:49;14.88;;;6.45;;
20653;SDS011;21083;50.898;4.902;2023-05-07T07:14:16;14.25;;;7.28;;
20653;SDS011;21083;50.898;4.902;2023-05-07T07:16:43;14.60;;;7.75;;
20653;SDS011;21083;50.898;4.902;2023-05-07T07:19:11;16.83;;;7.50;;
20653;SDS011;21083;50.898;4.902;2023-05-07T07:21:41;15.07;;;7.50;;
20653;SDS011;21083;50.898;4.902;2023-05-07T07:24:09;12.95;;;6.18;;
20653;SDS011;21083;50.898;4.902;2023-05-07T07:26:37;16.95;;;6.05;;
20653;SDS011;21083;50.898;4.902;2023-05-07T07:29:05;19.02;;;6.47;;
20653;SDS011;21083;50.898;4.902;2023-05-07T07:31:33;14.60;;;5.50;;
20653;SDS011;21083;50.898;4.902;2023-05-07T07:34:00;13.05;;;5.18;;
20653;SDS011;21083;50.898;4.902;2023-05-07T07:36:27;13.00;;;4.95;;
20653;SDS011;21083;50.898;4.902;2023-05-07T07:38:55;14.13;;;5.60;;
20653;SDS011;21083;50.898;4.902;2023-05-07T07:41:22;15.77;;;4.53;;
20653;SDS011;21083;50.898;4.902;2023-05-07T07:43:49;16.75;;;4.53;;
20653;SDS011;21083;50.898;4.902;2023-05-07T07:46:16;15.55;;;5.63;;
20653;SDS011;21083;50.898;4.902;2023-05-07T07:48:43;17.10;;;4.35;;
20653;SDS011;21083;50.898;4.902;2023-05-07T07:51:10;11.52;;;4.25;;
20653;SDS011;21083;50.898;4.902;2023-05-07T07:53:37;14.63;;;4.43;;
20653;SDS011;21083;50.898;4.902;2023-05-07T07:56:06;16.95;;;4.38;;
20653;SDS011;21083;50.898;4.902;2023-05-07T07:58:33;12.57;;;4.40;;
20653;SDS011;21083;50.898;4.902;2023-05-07T08:01:01;13.93;;;4.25;;
20653;SDS011;21083;50.898;4.902;2023-05-07T08:03:29;17.88;;;5.20;;
20653;SDS011;21083;50.898;4.902;2023-05-07T08:05:57;15.32;;;4.47;;
20653;SDS011;21083;50.898;4.902;2023-05-07T08:08:24;14.43;;;4.28;;
20653;SDS011;21083;50.898;4.902;2023-05-07T08:10:51;12.73;;;4.20;;
20653;SDS011;21083;50.898;4.902;2023-05-07T08:13:19;15.15;;;5.10;;
20653;SDS011;21083;50.898;4.902;2023-05-07T08:15:47;14.15;;;4.38;;
20653;SDS011;21083;50.898;4.902;2023-05-07T08:18:14;11.40;;;4.07;;
20653;SDS011;21083;50.898;4.902;2023-05-07T08:20:41;15.35;;;4.18;;
20653;SDS011;21083;50.898;4.902;2023-05-07T08:23:08;13.68;;;4.50;;
20653;SDS011;21083;50.898;4.902;2023-05-07T08:25:35;13.75;;;4.72;;
20653;SDS011;21083;50.898;4.902;2023-05-07T08:28:02;13.48;;;3.42;;
20653;SDS011;21083;50.898;4.902;2023-05-07T08:30:31;11.68;;;4.10;;
20653;SDS011;21083;50.898;4.902;2023-05-07T08:32:59;12.68;;;4.30;;
20653;SDS011;21083;50.898;4.902;2023-05-07T08:35:26;16.45;;;4.75;;
20653;SDS011;21083;50.898;4.902;2023-05-07T08:37:53;13.00;;;3.70;;
20653;SDS011;21083;50.898;4.902;2023-05-07T08:40:20;13.20;;;4.47;;
20653;SDS011;21083;50.898;4.902;2023-05-07T08:42:52;14.02;;;4.35;;
20653;SDS011;21083;50.898;4.902;2023-05-07T08:45:21;12.45;;;4.38;;
20653;SDS011;21083;50.898;4.902;2023-05-07T08:47:51;12.27;;;3.67;;
20653;SDS011;21083;50.898;4.902;2023-05-07T08:50:21;10.80;;;4.50;;
20653;SDS011;21083;50.898;4.902;2023-05-07T08:52:48;13.23;;;4.35;;
20653;SDS011;21083;50.898;4.902;2023-05-07T08:55:16;13.60;;;4.13;;
20653;SDS011;21083;50.898;4.902;2023-05-07T08:57:44;12.40;;;3.83;;
20653;SDS011;21083;50.898;4.902;2023-05-07T09:00:12;9.55;;;3.53;;
20653;SDS011;21083;50.898;4.902;2023-05-07T09:02:40;9.02;;;2.70;;
20653;SDS011;21083;50.898;4.902;2023-05-07T09:05:09;14.32;;;3.42;;
20653;SDS011;21083;50.898;4.902;2023-05-07T09:07:36;15.93;;;3.88;;
20653;SDS011;21083;50.898;4.902;2023-05-07T09:10:03;13.85;;;3.30;;
20653;SDS011;21083;50.898;4.902;2023-05-07T09:12:37;12.07;;;3.13;;
20653;SDS011;21083;50.898;4.902;2023-05-07T09:15:04;12.73;;;3.10;;
20653;SDS011;21083;50.898;4.902;2023-05-07T09:17:32;15.20;;;3.72;;
20653;SDS011;21083;50.898;4.902;2023-05-07T09:20:01;7.82;;;3.13;;
20653;SDS011;21083;50.898;4.902;2023-05-07T09:22:32;11.70;;;3.60;;
20653;SDS011;21083;50.898;4.902;2023-05-07T09:24:59;13.45;;;3.50;;
20653;SDS011;21083;50.898;4.902;2023-05-07T09:27:27;13.18;;;3.03;;
20653;SDS011;21083;50.898;4.902;2023-05-07T09:29:56;8.65;;;2.70;;
20653;SDS011;21083;50.898;4.902;2023-05-07T09:32:24;15.30;;;3.63;;
20653;SDS011;21083;50.898;4.902;2023-05-07T09:34:52;10.95;;;3.25;;
20653;SDS011;21083;50.898;4.902;2023-05-07T09:37:19;11.23;;;3.08;;
20653;SDS011;21083;50.898;4.902;2023-05-07T09:39:48;9.35;;;3.00;;
20653;SDS011;21083;50.898;4.902;2023-05-07T09:42:22;13.45;;;3.63;;
20653;SDS011;21083;50.898;4.902;2023-05-07T09:44:53;10.45;;;3.38;;
20653;SDS011;21083;50.898;4.902;2023-05-07T09:47:23;12.45;;;4.05;;
20653;SDS011;21083;50.898;4.902;2023-05-07T09:49:52;12.52;;;3.85;;
20653;SDS011;21083;50.898;4.902;2023-05-07T09:52:22;11.93;;;3.85;;
20653;SDS011;21083;50.898;4.902;2023-05-07T09:54:51;14.43;;;4.07;;
20653;SDS011;21083;50.898;4.902;2023-05-07T09:57:20;13.07;;;3.40;;
20653;SDS011;21083;50.898;4.902;2023-05-07T09:59:48;12.57;;;3.90;;
20653;SDS011;21083;50.898;4.902;2023-05-07T10:02:17;11.35;;;3.78;;
20653;SDS011;21083;50.898;4.902;2023-05-07T10:04:46;14.35;;;4.22;;
20653;SDS011;21083;50.898;4.902;2023-05-07T10:07:15;12.25;;;4.22;;
20653;SDS011;21083;50.898;4.902;2023-05-07T10:09:43;12.77;;;4.03;;
20653;SDS011;21083;50.898;4.902;2023-05-07T10:12:12;9.23;;;4.18;;
20653;SDS011;21083;50.898;4.902;2023-05-07T10:14:39;12.55;;;3.90;;
20653;SDS011;21083;50.898;4.902;2023-05-07T10:17:07;12.32;;;4.05;;
20653;SDS011;21083;50.898;4.902;2023-05-07T10:19:36;13.45;;;4.85;;
20653;SDS011;21083;50.898;4.902;2023-05-07T10:22:06;13.15;;;4.20;;
20653;SDS011;21083;50.898;4.902;2023-05-07T10:24:35;10.43;;;4.10;;
20653;SDS011;21083;50.898;4.902;2023-05-07T10:27:04;14.85;;;4.60;;
20653;SDS011;21083;50.898;4.902;2023-05-07T10:29:39;11.70;;;4.38;;
20653;SDS011;21083;50.898;4.902;2023-05-07T10:32:20;11.20;;;4.30;;
20653;SDS011;21083;50.898;4.902;2023-05-07T10:35:00;13.10;;;4.60;;
20653;SDS011;21083;50.898;4.902;2023-05-07T10:37:29;12.55;;;4.45;;
20653;SDS011;21083;50.898;4.902;2023-05-07T10:39:57;14.90;;;3.70;;
20653;SDS011;21083;50.898;4.902;2023-05-07T10:42:24;13.32;;;4.30;;
20653;SDS011;21083;50.898;4.902;2023-05-07T10:44:52;8.73;;;3.75;;
20653;SDS011;21083;50.898;4.902;2023-05-07T10:47:19;12.60;;;4.22;;
20653;SDS011;21083;50.898;4.902;2023-05-07T10:52:53;14.35;;;4.55;;
20653;SDS011;21083;50.898;4.902;2023-05-07T10:58:53;14.05;;;4.38;;
20653;SDS011;21083;50.898;4.902;2023-05-07T11:04:19;12.77;;;4.30;;
20653;SDS011;21083;50.898;4.902;2023-05-07T11:09:58;10.98;;;4.25;;
20653;SDS011;21083;50.898;4.902;2023-05-07T11:15:35;11.60;;;4.05;;
20653;SDS011;21083;50.898;4.902;2023-05-07T11:18:09;10.65;;;4.13;;
20653;SDS011;21083;50.898;4.902;2023-05-07T11:26:25;16.85;;;5.32;;
20653;SDS011;21083;50.898;4.902;2023-05-07T11:28:53;14.23;;;4.80;;
20653;SDS011;21083;50.898;4.902;2023-05-07T11:31:21;11.60;;;4.95;;
20653;SDS011;21083;50.898;4.902;2023-05-07T11:33:52;15.65;;;4.95;;
20653;SDS011;21083;50.898;4.902;2023-05-07T11:36:21;11.50;;;5.03;;
20653;SDS011;21083;50.898;4.902;2023-05-07T11:38:50;10.80;;;5.10;;
20653;SDS011;21083;50.898;4.902;2023-05-07T11:41:17;12.57;;;4.90;;
20653;SDS011;21083;50.898;4.902;2023-05-07T11:43:53;13.68;;;5.38;;
20653;SDS011;21083;50.898;4.902;2023-05-07T11:46:22;18.40;;;4.47;;
20653;SDS011;21083;50.898;4.902;2023-05-07T11:48:49;10.85;;;5.18;;
20653;SDS011;21083;50.898;4.902;2023-05-07T11:51:21;12.23;;;5.38;;
20653;SDS011;21083;50.898;4.902;2023-05-07T11:53:49;12.50;;;4.75;;
20653;SDS011;21083;50.898;4.902;2023-05-07T11:56:17;14.20;;;4.95;;
20653;SDS011;21083;50.898;4.902;2023-05-07T11:58:45;11.57;;;4.30;;
20653;SDS011;21083;50.898;4.902;2023-05-07T12:01:14;9.57;;;4.00;;
20653;SDS011;21083;50.898;4.902;2023-05-07T12:03:42;10.10;;;3.50;;
20653;SDS011;21083;50.898;4.902;2023-05-07T12:06:11;14.13;;;3.40;;
20653;SDS011;21083;50.898;4.902;2023-05-07T12:08:40;12.65;;;2.92;;
20653;SDS011;21083;50.898;4.902;2023-05-07T12:11:08;16.40;;;3.28;;
20653;SDS011;21083;50.898;4.902;2023-05-07T12:13:36;12.15;;;3.22;;
20653;SDS011;21083;50.898;4.902;2023-05-07T12:16:03;8.93;;;3.40;;
20653;SDS011;21083;50.898;4.902;2023-05-07T12:18:32;11.45;;;3.40;;
20653;SDS011;21083;50.898;4.902;2023-05-07T12:21:00;11.07;;;3.72;;
20653;SDS011;21083;50.898;4.902;2023-05-07T12:23:28;13.10;;;3.60;;
20653;SDS011;21083;50.898;4.902;2023-05-07T12:25:57;15.48;;;3.65;;
20653;SDS011;21083;50.898;4.902;2023-05-07T12:28:25;14.30;;;3.78;;
20653;SDS011;21083;50.898;4.902;2023-05-07T12:30:52;12.20;;;4.00;;
20653;SDS011;21083;50.898;4.902;2023-05-07T12:33:23;9.38;;;3.30;;
20653;SDS011;21083;50.898;4.902;2023-05-07T12:35:52;10.65;;;3.70;;
20653;SDS011;21083;50.898;4.902;2023-05-07T12:38:20;10.75;;;3.30;;
20653;SDS011;21083;50.898;4.902;2023-05-07T12:40:49;9.80;;;3.83;;
20653;SDS011;21083;50.898;4.902;2023-05-07T12:43:19;11.27;;;2.95;;
20653;SDS011;21083;50.898;4.902;2023-05-07T12:45:46;6.07;;;2.30;;
20653;SDS011;21083;50.898;4.902;2023-05-07T12:48:15;12.25;;;2.80;;
20653;SDS011;21083;50.898;4.902;2023-05-07T12:50:42;7.32;;;2.45;;
20653;SDS011;21083;50.898;4.902;2023-05-07T12:53:10;9.38;;;2.53;;
20653;SDS011;21083;50.898;4.902;2023-05-07T12:55:41;7.53;;;2.20;;
20653;SDS011;21083;50.898;4.902;2023-05-07T12:58:14;8.98;;;2.70;;
20653;SDS011;21083;50.898;4.902;2023-05-07T13:00:44;9.65;;;3.00;;
20653;SDS011;21083;50.898;4.902;2023-05-07T13:03:17;9.30;;;3.10;;
20653;SDS011;21083;50.898;4.902;2023-05-07T13:05:48;10.40;;;3.28;;
20653;SDS011;21083;50.898;4.902;2023-05-07T13:08:23;11.32;;;3.28;;
20653;SDS011;21083;50.898;4.902;2023-05-07T13:10:54;9.70;;;3.15;;
20653;SDS011;21083;50.898;4.902;2023-05-07T13:13:21;8.65;;;3.40;;
20653;SDS011;21083;50.898;4.902;2023-05-07T13:15:49;10.65;;;3.20;;
20653;SDS011;21083;50.898;4.902;2023-05-07T13:18:17;9.68;;;3.47;;
20653;SDS011;21083;50.898;4.902;2023-05-07T13:20:43;9.02;;;3.10;;
20653;SDS011;21083;50.898;4.902;2023-05-07T13:23:10;14.63;;;4.47;;
20653;SDS011;21083;50.898;4.902;2023-05-07T13:25:37;8.02;;;3.10;;
20653;SDS011;21083;50.898;4.902;2023-05-07T13:28:05;12.00;;;3.47;;
20653;SDS011;21083;50.898;4.902;2023-05-07T13:30:32;10.23;;;3.30;;
20653;SDS011;21083;50.898;4.902;2023-05-07T13:33:00;11.15;;;3.03;;
20653;SDS011;21083;50.898;4.902;2023-05-07T13:35:27;11.25;;;2.10;;
20653;SDS011;21083;50.898;4.902;2023-05-07T13:37:54;9.27;;;1.88;;
20653;SDS011;21083;50.898;4.902;2023-05-07T13:40:21;10.70;;;2.55;;
20653;SDS011;21083;50.898;4.902;2023-05-07T13:42:49;9.73;;;2.65;;
20653;SDS011;21083;50.898;4.902;2023-05-07T13:45:16;9.05;;;2.30;;
20653;SDS011;21083;50.898;4.902;2023-05-07T13:47:44;8.45;;;2.10;;
20653;SDS011;21083;50.898;4.902;2023-05-07T13:50:13;7.32;;;2.05;;
20653;SDS011;21083;50.898;4.902;2023-05-07T13:52:40;9.05;;;1.50;;
20653;SDS011;21083;50.898;4.902;2023-05-07T13:55:11;11.73;;;2.00;;
20653;SDS011;21083;50.898;4.902;2023-05-07T13:57:38;9.43;;;2.00;;
20653;SDS011;21083;50.898;4.902;2023-05-07T14:00:05;9.60;;;2.17;;
20653;SDS011;21083;50.898;4.902;2023-05-07T14:02:33;8.77;;;1.60;;
20653;SDS011;21083;50.898;4.902;2023-05-07T14:05:00;8.15;;;2.05;;
20653;SDS011;21083;50.898;4.902;2023-05-07T14:07:28;4.78;;;1.52;;
20653;SDS011;21083;50.898;4.902;2023-05-07T14:09:56;8.48;;;1.50;;
20653;SDS011;21083;50.898;4.902;2023-05-07T14:12:23;11.48;;;1.52;;
20653;SDS011;21083;50.898;4.902;2023-05-07T14:14:50;8.68;;;2.17;;
20653;SDS011;21083;50.898;4.902;2023-05-07T14:17:17;7.80;;;2.28;;
20653;SDS011;21083;50.898;4.902;2023-05-07T14:19:45;7.05;;;1.85;;
20653;SDS011;21083;50.898;4.902;2023-05-07T14:22:13;5.45;;;1.50;;
20653;SDS011;21083;50.898;4.902;2023-05-07T14:24:41;8.60;;;2.60;;
20653;SDS011;21083;50.898;4.902;2023-05-07T14:27:08;8.02;;;1.75;;
20653;SDS011;21083;50.898;4.902;2023-05-07T14:29:35;6.50;;;2.20;;
20653;SDS011;21083;50.898;4.902;2023-05-07T14:32:03;8.65;;;2.03;;
20653;SDS011;21083;50.898;4.902;2023-05-07T14:34:30;6.70;;;1.83;;
20653;SDS011;21083;50.898;4.902;2023-05-07T14:36:58;8.15;;;2.38;;
20653;SDS011;21083;50.898;4.902;2023-05-07T14:39:26;10.07;;;2.00;;
20653;SDS011;21083;50.898;4.902;2023-05-07T14:41:54;6.90;;;2.28;;
20653;SDS011;21083;50.898;4.902;2023-05-07T14:44:22;11.52;;;2.10;;
20653;SDS011;21083;50.898;4.902;2023-05-07T14:46:49;10.85;;;2.30;;
20653;SDS011;21083;50.898;4.902;2023-05-07T14:49:16;8.02;;;2.42;;
20653;SDS011;21083;50.898;4.902;2023-05-07T14:51:43;9.50;;;1.90;;
20653;SDS011;21083;50.898;4.902;2023-05-07T14:54:11;7.80;;;2.42;;
20653;SDS011;21083;50.898;4.902;2023-05-07T14:56:38;7.53;;;2.40;;
20653;SDS011;21083;50.898;4.902;2023-05-07T14:59:07;11.57;;;2.78;;
20653;SDS011;21083;50.898;4.902;2023-05-07T15:01:35;10.88;;;2.47;;
20653;SDS011;21083;50.898;4.902;2023-05-07T15:04:03;9.38;;;2.40;;
20653;SDS011;21083;50.898;4.902;2023-05-07T15:06:30;9.82;;;2.50;;